createdAt,value
2023-05-11T00:00:05.911Z,44.32
2023-05-11T00:01:05.921Z,44.44
2023-05-11T00:02:06.013Z,44.37
2023-05-11T00:03:05.975Z,44.38
2023-05-11T00:04:06.008Z,44.37
2023-05-11T00:05:05.875Z,44.35
2023-05-11T00:06:05.860Z,44.33
2023-05-11T00:07:05.837Z,44.37
2023-05-11T00:08:05.857Z,44.47
2023-05-11T00:09:05.833Z,44.30
2023-05-11T00:10:05.834Z,44.38
2023-05-11T00:11:05.822Z,44.34
2023-05-11T00:12:05.833Z,44.27
2023-05-11T00:13:05.840Z,44.35
2023-05-11T00:14:05.802Z,44.30
2023-05-11T00:15:05.811Z,44.29
2023-05-11T00:16:05.833Z,44.31
2023-05-11T00:17:05.774Z,44.37
2023-05-11T00:18:05.844Z,44.35
2023-05-11T00:19:05.821Z,44.30
2023-05-11T00:20:05.759Z,44.28
2023-05-11T00:21:05.789Z,44.29
2023-05-11T00:22:05.742Z,44.26
2023-05-11T00:23:05.761Z,44.21
2023-05-11T00:24:05.728Z,44.16
2023-05-11T00:25:05.725Z,44.24
2023-05-11T00:26:05.756Z,44.25
2023-05-11T00:27:05.732Z,44.29
2023-05-11T00:28:05.707Z,44.27
2023-05-11T00:29:05.698Z,44.31
2023-05-11T00:30:05.701Z,44.18
2023-05-11T00:31:05.776Z,44.25
2023-05-11T00:32:05.683Z,44.21
2023-05-11T00:33:05.856Z,44.23
2023-05-11T00:34:05.673Z,44.21
2023-05-11T00:35:05.676Z,44.12
2023-05-11T00:36:05.656Z,44.14
2023-05-11T00:37:05.641Z,44.18
2023-05-11T00:38:05.637Z,44.12
2023-05-11T00:39:05.644Z,44.21
2023-05-11T00:40:05.615Z,44.14
2023-05-11T00:41:05.638Z,44.15
2023-05-11T00:42:05.620Z,44.16
2023-05-11T00:43:05.631Z,44.09
2023-05-11T00:44:05.590Z,44.10
2023-05-11T00:45:05.609Z,44.09
2023-05-11T00:46:05.589Z,44.08
2023-05-11T00:47:05.717Z,44.05
2023-05-11T00:48:05.630Z,44.23
2023-05-11T00:49:05.582Z,44.11
2023-05-11T00:50:05.540Z,44.14
2023-05-11T00:51:05.555Z,43.99
2023-05-11T00:52:05.529Z,43.98
2023-05-11T00:53:05.523Z,44.05
2023-05-11T00:54:05.550Z,44.08
2023-05-11T00:55:05.535Z,44.15
2023-05-11T00:56:05.532Z,44.05
2023-05-11T00:57:05.499Z,44.04
2023-05-11T00:58:05.500Z,43.97
2023-05-11T00:59:05.577Z,44.02
2023-05-11T01:00:05.476Z,43.90
2023-05-11T01:01:05.506Z,43.99
2023-05-11T01:02:05.561Z,44.02
2023-05-11T01:03:05.491Z,44.01
2023-05-11T01:04:05.450Z,43.94
2023-05-11T01:05:05.481Z,44.06
2023-05-11T01:06:05.511Z,43.97
2023-05-11T01:07:05.461Z,43.94
2023-05-11T01:08:05.434Z,44.03
2023-05-11T01:09:05.444Z,43.92
2023-05-11T01:10:05.452Z,44.07
2023-05-11T01:11:05.457Z,44.06
2023-05-11T01:12:05.406Z,43.96
2023-05-11T01:13:05.427Z,43.94
2023-05-11T01:14:05.387Z,43.94
2023-05-11T01:15:05.387Z,43.91
2023-05-11T01:16:05.393Z,43.93
2023-05-11T01:17:05.406Z,43.90
2023-05-11T01:18:05.442Z,43.96
2023-05-11T01:19:05.445Z,43.97
2023-05-11T01:20:05.345Z,43.92
2023-05-11T01:21:05.378Z,44.03
2023-05-11T01:22:05.333Z,44.07
2023-05-11T01:23:05.333Z,43.88
2023-05-11T01:24:05.315Z,43.97
2023-05-11T01:25:05.321Z,44.02
2023-05-11T01:26:05.300Z,43.85
2023-05-11T01:27:05.307Z,43.87
2023-05-11T01:28:05.284Z,44.00
2023-05-11T01:29:05.278Z,43.88
2023-05-11T01:30:05.288Z,43.92
2023-05-11T01:31:05.283Z,43.87
2023-05-11T01:32:05.317Z,43.87
2023-05-11T01:33:05.288Z,43.92
2023-05-11T01:34:05.274Z,43.78
2023-05-11T01:35:05.258Z,43.84
2023-05-11T01:36:05.254Z,43.95
2023-05-11T01:37:05.243Z,43.90
2023-05-11T01:38:05.234Z,43.77
2023-05-11T01:39:05.233Z,43.80
2023-05-11T01:40:05.279Z,43.91
2023-05-11T01:41:05.216Z,43.83
2023-05-11T01:42:05.202Z,43.76
2023-05-11T01:43:05.233Z,43.78
2023-05-11T01:44:05.216Z,43.83
2023-05-11T01:45:05.205Z,43.84
2023-05-11T01:46:05.253Z,43.78
2023-05-11T01:47:05.162Z,43.79
2023-05-11T01:48:05.253Z,43.78
2023-05-11T01:49:05.165Z,43.76
2023-05-11T01:50:05.155Z,43.72
2023-05-11T01:51:05.146Z,43.69
2023-05-11T01:52:05.143Z,43.70
2023-05-11T01:53:05.131Z,43.71
2023-05-11T01:54:05.140Z,43.67
2023-05-11T01:55:05.115Z,43.64
2023-05-11T01:56:05.111Z,43.64
2023-05-11T01:57:05.109Z,43.70
2023-05-11T01:58:05.099Z,43.64
2023-05-11T01:59:05.089Z,43.61
2023-05-11T02:00:05.083Z,43.68
2023-05-11T02:01:05.116Z,43.57
2023-05-11T02:02:05.072Z,43.73
2023-05-11T02:03:05.146Z,43.72
2023-05-11T02:04:05.061Z,43.63
2023-05-11T02:05:05.080Z,43.64
2023-05-11T02:06:05.052Z,43.62
2023-05-11T02:07:05.037Z,43.53
2023-05-11T02:08:05.021Z,43.60
2023-05-11T02:09:05.024Z,43.53
2023-05-11T02:10:05.015Z,43.53
2023-05-11T02:11:05.031Z,43.59
2023-05-11T02:12:04.998Z,43.58
2023-05-11T02:13:04.986Z,43.52
2023-05-11T02:14:04.995Z,43.51
2023-05-11T02:15:04.970Z,43.50
2023-05-11T02:16:05.032Z,43.51
2023-05-11T02:17:04.969Z,43.56
2023-05-11T02:18:04.983Z,43.54
2023-05-11T02:19:04.986Z,43.54
2023-05-11T02:20:04.966Z,43.57
2023-05-11T02:21:04.947Z,43.48
2023-05-11T02:22:04.924Z,43.45
2023-05-11T02:23:04.909Z,43.49
2023-05-11T02:24:04.909Z,43.49
2023-05-11T02:25:04.910Z,43.45
2023-05-11T02:26:04.905Z,43.43
2023-05-11T02:27:04.883Z,43.51
2023-05-11T02:28:04.880Z,43.40
2023-05-11T02:29:04.880Z,43.46
2023-05-11T02:30:04.882Z,43.50
2023-05-11T02:31:04.883Z,43.46
2023-05-11T02:32:04.858Z,43.34
2023-05-11T02:33:04.901Z,43.39
2023-05-11T02:34:04.848Z,43.43
2023-05-11T02:35:04.829Z,43.40
2023-05-11T02:36:04.832Z,43.45
2023-05-11T02:37:04.816Z,43.38
2023-05-11T02:38:04.833Z,43.34
2023-05-11T02:39:04.816Z,43.32
2023-05-11T02:40:04.803Z,43.39
2023-05-11T02:41:04.797Z,43.41
2023-05-11T02:42:04.792Z,43.28
2023-05-11T02:43:04.785Z,43.32
2023-05-11T02:44:04.776Z,43.30
2023-05-11T02:45:04.772Z,43.30
2023-05-11T02:46:04.749Z,43.20
2023-05-11T02:47:04.787Z,43.35
2023-05-11T02:48:04.769Z,43.31
2023-05-11T02:49:04.737Z,43.26
2023-05-11T02:50:04.745Z,43.25
2023-05-11T02:51:04.738Z,43.34
2023-05-11T02:52:04.751Z,43.38
2023-05-11T02:53:04.710Z,43.29
2023-05-11T02:54:04.725Z,43.20
2023-05-11T02:55:04.711Z,43.18
2023-05-11T02:56:04.692Z,43.20
2023-05-11T02:57:04.685Z,43.26
2023-05-11T02:58:04.686Z,43.18
2023-05-11T02:59:04.701Z,43.28
2023-05-11T03:00:04.666Z,43.25
2023-05-11T03:01:04.796Z,43.25
2023-05-11T03:02:04.793Z,43.26
2023-05-11T03:03:04.741Z,43.29
2023-05-11T03:04:04.652Z,43.16
2023-05-11T03:05:04.658Z,43.21
2023-05-11T03:06:04.628Z,43.26
2023-05-11T03:07:04.624Z,43.21
2023-05-11T03:08:04.623Z,43.25
2023-05-11T03:09:04.628Z,43.24
2023-05-11T03:10:04.636Z,43.23
2023-05-11T03:11:04.648Z,43.27
2023-05-11T03:12:04.674Z,43.21
2023-05-11T03:13:04.723Z,43.22
2023-05-11T03:14:04.687Z,43.15
2023-05-11T03:15:04.740Z,43.12
2023-05-11T03:16:04.720Z,43.09
2023-05-11T03:17:04.795Z,43.09
2023-05-11T03:18:04.822Z,43.24
2023-05-11T03:19:04.785Z,43.25
2023-05-11T03:20:04.776Z,43.17
2023-05-11T03:21:04.791Z,43.20
2023-05-11T03:22:04.791Z,43.12
2023-05-11T03:23:04.810Z,43.11
2023-05-11T03:24:04.827Z,43.18
2023-05-11T03:25:04.849Z,43.15
2023-05-11T03:26:04.841Z,43.21
2023-05-11T03:27:04.848Z,43.21
2023-05-11T03:28:04.883Z,43.19
2023-05-11T03:29:04.899Z,43.02
2023-05-11T03:30:04.906Z,43.26
2023-05-11T03:31:04.887Z,43.05
2023-05-11T03:32:04.955Z,43.09
2023-05-11T03:33:04.971Z,43.09
2023-05-11T03:34:04.912Z,43.12
2023-05-11T03:35:04.957Z,43.05
2023-05-11T03:36:04.964Z,43.05
2023-05-11T03:37:04.959Z,43.04
2023-05-11T03:38:04.973Z,43.13
2023-05-11T03:39:04.998Z,43.04
2023-05-11T03:40:04.997Z,43.01
2023-05-11T03:41:04.996Z,43.10
2023-05-11T03:42:05.035Z,43.09
2023-05-11T03:43:05.009Z,43.10
2023-05-11T03:44:05.035Z,42.97
2023-05-11T03:45:05.032Z,42.97
2023-05-11T03:46:05.079Z,42.98
2023-05-11T03:47:05.070Z,42.95
2023-05-11T03:48:05.111Z,42.96
2023-05-11T03:49:05.078Z,43.02
2023-05-11T03:50:05.089Z,42.98
2023-05-11T03:51:05.086Z,42.92
2023-05-11T03:52:05.117Z,42.95
2023-05-11T03:53:05.124Z,43.06
2023-05-11T03:54:05.126Z,42.99
2023-05-11T03:55:05.128Z,42.94
2023-05-11T03:56:05.149Z,42.98
2023-05-11T03:57:05.149Z,42.99
2023-05-11T03:58:05.163Z,42.92
2023-05-11T03:59:05.219Z,42.97
2023-05-11T04:00:05.209Z,42.97
2023-05-11T04:01:05.205Z,42.93
2023-05-11T04:02:05.228Z,43.00
2023-05-11T04:03:05.353Z,42.92
2023-05-11T04:04:05.343Z,42.93
2023-05-11T04:05:05.268Z,42.88
2023-05-11T04:06:05.273Z,42.95
2023-05-11T04:07:05.300Z,42.98
2023-05-11T04:08:05.301Z,42.89
2023-05-11T04:09:05.315Z,42.90
2023-05-11T04:10:05.335Z,42.86
2023-05-11T04:11:05.377Z,42.95
2023-05-11T04:12:05.372Z,43.00
2023-05-11T04:13:05.373Z,42.92
2023-05-11T04:14:05.417Z,42.84
2023-05-11T04:15:05.409Z,42.84
2023-05-11T04:16:05.460Z,42.83
2023-05-11T04:17:05.446Z,42.85
2023-05-11T04:18:05.484Z,42.83
2023-05-11T04:19:05.512Z,42.92
2023-05-11T04:20:05.497Z,42.79
2023-05-11T04:21:05.502Z,42.87
2023-05-11T04:22:05.522Z,42.80
2023-05-11T04:23:05.537Z,42.87
2023-05-11T04:24:05.593Z,42.83
2023-05-11T04:25:05.573Z,42.86
2023-05-11T04:26:05.598Z,42.77
2023-05-11T04:27:05.610Z,42.76
2023-05-11T04:28:05.633Z,42.85
2023-05-11T04:29:05.689Z,42.88
2023-05-11T04:30:05.673Z,42.88
2023-05-11T04:31:05.752Z,42.79
2023-05-11T04:32:05.714Z,42.81
2023-05-11T04:33:05.795Z,42.72
2023-05-11T04:34:05.751Z,42.84
2023-05-11T04:35:05.817Z,42.78
2023-05-11T04:36:05.808Z,42.79
2023-05-11T04:37:05.867Z,42.85
2023-05-11T04:38:05.858Z,42.82
2023-05-11T04:39:07.407Z,42.71
2023-05-11T04:40:05.900Z,42.74
2023-05-11T04:41:05.905Z,42.76
2023-05-11T04:42:05.931Z,42.76
2023-05-11T04:43:05.942Z,42.75
2023-05-11T04:44:05.975Z,42.74
2023-05-11T04:45:06.003Z,42.69
2023-05-11T04:46:06.014Z,42.74
2023-05-11T04:47:06.204Z,42.71
2023-05-11T04:48:06.118Z,42.65
2023-05-11T04:49:06.046Z,42.67
2023-05-11T04:50:06.103Z,42.70
2023-05-11T04:51:06.126Z,42.54
2023-05-11T04:52:06.098Z,42.53
2023-05-11T04:53:06.116Z,42.49
2023-05-11T04:54:06.140Z,42.53
2023-05-11T04:55:06.208Z,42.60
2023-05-11T04:56:06.194Z,42.45
2023-05-11T04:57:06.235Z,42.48
2023-05-11T04:58:06.235Z,42.49
2023-05-11T04:59:06.262Z,42.52
2023-05-11T05:00:06.303Z,42.57
2023-05-11T05:01:06.347Z,42.49
2023-05-11T05:02:06.328Z,42.35
2023-05-11T05:03:06.406Z,42.49
2023-05-11T05:04:06.413Z,42.56
2023-05-11T05:05:06.413Z,42.36
2023-05-11T05:06:06.413Z,42.31
2023-05-11T05:07:06.474Z,42.39
2023-05-11T05:08:06.468Z,42.34
2023-05-11T05:09:06.489Z,42.34
2023-05-11T05:10:06.520Z,42.37
2023-05-11T05:11:06.548Z,42.34
2023-05-11T05:12:06.558Z,42.27
2023-05-11T05:13:06.580Z,42.21
2023-05-11T05:14:06.615Z,42.27
2023-05-11T05:15:06.660Z,42.37
2023-05-11T05:16:06.641Z,42.27
2023-05-11T05:17:06.731Z,42.25
2023-05-11T05:18:06.721Z,42.40
2023-05-11T05:19:06.853Z,42.28
2023-05-11T05:20:06.748Z,42.31
2023-05-11T05:21:06.786Z,42.23
2023-05-11T05:22:06.801Z,42.26
2023-05-11T05:23:06.836Z,42.45
2023-05-11T05:24:06.854Z,42.29
2023-05-11T05:25:06.860Z,42.24
2023-05-11T05:26:06.912Z,42.33
2023-05-11T05:27:06.925Z,42.32
2023-05-11T05:28:06.978Z,42.24
2023-05-11T05:29:07.001Z,42.24
2023-05-11T05:30:06.998Z,42.31
2023-05-11T05:31:07.041Z,42.29
2023-05-11T05:32:07.036Z,42.27
2023-05-11T05:33:07.117Z,42.27
2023-05-11T05:34:07.139Z,42.16
2023-05-11T05:35:07.149Z,42.11
2023-05-11T05:36:07.146Z,42.29
2023-05-11T05:37:07.181Z,42.40
2023-05-11T05:38:07.187Z,42.63
2023-05-11T05:39:07.227Z,42.72
2023-05-11T05:40:07.278Z,42.68
2023-05-11T05:41:07.257Z,42.73
2023-05-11T05:42:07.332Z,42.75
2023-05-11T05:43:07.320Z,42.99
2023-05-11T05:44:07.320Z,43.32
2023-05-11T05:45:07.337Z,43.85
2023-05-11T05:46:07.358Z,43.76
2023-05-11T05:47:07.357Z,43.74
2023-05-11T05:48:07.414Z,44.03
2023-05-11T05:49:07.373Z,44.11
2023-05-11T05:50:07.456Z,44.28
2023-05-11T05:51:08.410Z,44.45
2023-05-11T05:52:07.391Z,44.47
2023-05-11T05:53:07.547Z,44.60
2023-05-11T05:54:07.420Z,44.96
2023-05-11T05:55:07.409Z,44.94
2023-05-11T05:56:07.411Z,45.21
2023-05-11T05:57:07.399Z,45.33
2023-05-11T05:58:07.384Z,45.37
2023-05-11T05:59:07.397Z,45.50
2023-05-11T06:00:07.429Z,45.55
2023-05-11T06:01:07.407Z,45.85
2023-05-11T06:02:07.398Z,45.91
2023-05-11T06:03:07.552Z,45.91
2023-05-11T06:04:07.448Z,46.08
2023-05-11T06:05:07.416Z,46.33
2023-05-11T06:06:07.389Z,46.34
2023-05-11T06:07:07.382Z,46.39
2023-05-11T06:08:11.067Z,46.48
2023-05-11T06:09:07.381Z,46.64
2023-05-11T06:10:07.384Z,46.72
2023-05-11T06:11:07.758Z,47.49
2023-05-11T06:12:07.357Z,47.15
2023-05-11T06:13:07.354Z,47.03
2023-05-11T06:14:07.349Z,46.98
2023-05-11T06:15:07.350Z,46.97
2023-05-11T06:16:07.366Z,47.12
2023-05-11T06:17:07.323Z,47.39
2023-05-11T06:18:07.370Z,47.25
2023-05-11T06:19:07.388Z,47.33
2023-05-11T06:20:07.311Z,47.38
2023-05-11T06:21:07.290Z,47.42
2023-05-11T06:22:07.296Z,47.48
2023-05-11T06:23:07.328Z,47.54
2023-05-11T06:24:07.273Z,47.58
2023-05-11T06:25:07.293Z,47.67
2023-05-11T06:26:07.268Z,47.78
2023-05-11T06:27:07.336Z,47.87
2023-05-11T06:28:07.251Z,47.91
2023-05-11T06:29:07.287Z,47.99
2023-05-11T06:30:07.250Z,48.08
2023-05-11T06:31:07.309Z,48.18
2023-05-11T06:32:07.376Z,48.26
2023-05-11T06:33:07.248Z,48.31
2023-05-11T06:34:07.258Z,48.40
2023-05-11T06:35:07.229Z,48.49
2023-05-11T06:36:07.225Z,48.61
2023-05-11T06:37:07.196Z,48.95
2023-05-11T06:38:07.218Z,49.37
2023-05-11T06:39:07.241Z,48.87
2023-05-11T06:40:07.309Z,49.06
2023-05-11T06:41:07.791Z,48.80
2023-05-11T06:42:07.408Z,48.99
2023-05-11T06:43:07.458Z,48.93
2023-05-11T06:44:07.512Z,48.74
2023-05-11T06:45:07.640Z,48.85
2023-05-11T06:46:07.657Z,48.87
2023-05-11T06:47:07.699Z,48.53
2023-05-11T06:48:07.814Z,48.32
2023-05-11T06:49:07.806Z,48.25
2023-05-11T06:50:07.879Z,48.16
2023-05-11T06:51:07.973Z,48.20
2023-05-11T06:52:07.960Z,48.46
2023-05-11T06:53:07.987Z,48.36
2023-05-11T06:54:08.008Z,48.51
2023-05-11T06:55:08.027Z,48.27
2023-05-11T06:56:08.033Z,48.05
2023-05-11T06:57:08.050Z,48.19
2023-05-11T06:58:08.037Z,47.80
2023-05-11T06:59:08.019Z,47.62
2023-05-11T07:00:08.053Z,47.67
2023-05-11T07:01:08.168Z,47.84
2023-05-11T07:02:08.050Z,47.93
2023-05-11T07:03:08.106Z,48.19
2023-05-11T07:04:08.083Z,48.26
2023-05-11T07:05:08.137Z,48.28
2023-05-11T07:06:08.019Z,48.33
2023-05-11T07:07:07.984Z,48.37
2023-05-11T07:08:08.003Z,48.73
2023-05-11T07:09:08.044Z,48.85
2023-05-11T07:10:07.986Z,48.76
2023-05-11T07:11:08.004Z,48.71
2023-05-11T07:12:07.986Z,48.83
2023-05-11T07:13:07.996Z,48.76
2023-05-11T07:14:08.064Z,48.69
2023-05-11T07:15:07.999Z,48.68
2023-05-11T07:16:08.021Z,48.59
2023-05-11T07:17:08.098Z,48.58
2023-05-11T07:18:08.064Z,48.60
2023-05-11T07:19:08.128Z,48.60
2023-05-11T07:20:08.080Z,48.61
2023-05-11T07:21:08.030Z,48.58
2023-05-11T07:22:08.071Z,48.53
2023-05-11T07:23:08.011Z,48.63
2023-05-11T07:24:08.042Z,48.48
2023-05-11T07:25:08.031Z,48.55
2023-05-11T07:26:08.049Z,48.58
2023-05-11T07:27:08.029Z,48.67
2023-05-11T07:28:08.063Z,48.65
2023-05-11T07:29:08.068Z,48.69
2023-05-11T07:30:08.042Z,48.63
2023-05-11T07:31:08.125Z,48.18
2023-05-11T07:32:08.062Z,44.58
2023-05-11T07:33:08.082Z,44.02
2023-05-11T07:34:08.048Z,43.01
2023-05-11T07:35:08.045Z,41.63
2023-05-11T07:36:08.301Z,40.94
2023-05-11T07:37:08.056Z,39.94
2023-05-11T07:38:08.072Z,40.49
2023-05-11T07:39:08.039Z,40.56
2023-05-11T07:40:08.055Z,39.77
2023-05-11T07:41:10.144Z,39.09
2023-05-11T07:42:08.055Z,38.71
2023-05-11T07:43:08.045Z,38.42
2023-05-11T07:44:08.068Z,38.21
2023-05-11T07:45:08.045Z,37.93
2023-05-11T07:46:08.348Z,37.47
2023-05-11T07:47:08.132Z,37.34
2023-05-11T07:48:08.105Z,37.32
2023-05-11T07:49:17.270Z,37.15
2023-05-11T07:50:08.988Z,37.26
2023-05-11T07:51:08.053Z,37.00
2023-05-11T07:52:07.962Z,37.29
2023-05-11T07:53:07.987Z,37.40
2023-05-11T07:54:07.949Z,37.13
2023-05-11T07:55:07.966Z,37.09
2023-05-11T07:56:07.969Z,36.96
2023-05-11T07:57:07.926Z,37.01
2023-05-11T07:58:07.927Z,36.80
2023-05-11T07:59:07.916Z,36.96
2023-05-11T08:00:08.251Z,36.74
2023-05-11T08:01:07.925Z,36.77
2023-05-11T08:02:07.958Z,36.90
2023-05-11T08:03:07.924Z,37.15
2023-05-11T08:04:07.917Z,36.94
2023-05-11T08:05:07.883Z,36.98
2023-05-11T08:06:07.948Z,37.11
2023-05-11T08:07:07.942Z,36.99
2023-05-11T08:08:07.989Z,37.01
2023-05-11T08:09:08.040Z,37.20
2023-05-11T08:10:08.121Z,37.26
2023-05-11T08:11:08.176Z,37.20
2023-05-11T08:12:08.213Z,37.20
2023-05-11T08:13:08.275Z,37.40
2023-05-11T08:14:08.353Z,37.22
2023-05-11T08:15:08.399Z,37.34
2023-05-11T08:16:08.559Z,37.37
2023-05-11T08:17:08.516Z,37.33
2023-05-11T08:18:08.612Z,36.93
2023-05-11T08:19:08.735Z,37.18
2023-05-11T08:20:08.722Z,37.27
2023-05-11T08:21:08.851Z,37.39
2023-05-11T08:22:08.830Z,37.57
2023-05-11T08:23:08.888Z,37.53
2023-05-11T08:24:08.913Z,37.76
2023-05-11T08:25:08.965Z,37.52
2023-05-11T08:26:09.004Z,37.65
2023-05-11T08:27:09.033Z,37.76
2023-05-11T08:28:09.088Z,37.92
2023-05-11T08:29:09.199Z,37.94
2023-05-11T08:30:11.467Z,38.30
2023-05-11T08:31:09.214Z,38.84
2023-05-11T08:32:09.229Z,39.33
2023-05-11T08:33:28.903Z,39.54
2023-05-11T08:34:18.171Z,40.03
2023-05-11T08:35:10.262Z,40.25
2023-05-11T08:36:09.091Z,40.74
2023-05-11T08:37:09.084Z,40.91
2023-05-11T08:38:09.073Z,41.36
2023-05-11T08:39:09.068Z,41.90
2023-05-11T08:40:09.068Z,42.09
2023-05-11T08:41:09.059Z,42.14
2023-05-11T08:42:09.050Z,42.07
2023-05-11T08:43:09.042Z,42.26
2023-05-11T08:44:09.057Z,42.24
2023-05-11T08:45:09.031Z,42.19
2023-05-11T08:46:09.093Z,42.52
2023-05-11T08:47:21.032Z,43.08
2023-05-11T08:48:10.037Z,43.04
2023-05-11T08:49:09.002Z,43.00
2023-05-11T08:50:09.017Z,43.03
2023-05-11T08:51:09.350Z,43.05
2023-05-11T08:52:09.019Z,43.13
2023-05-11T08:53:08.978Z,43.16
2023-05-11T08:54:08.960Z,43.16
2023-05-11T08:55:08.998Z,43.15
2023-05-11T08:56:08.941Z,43.15
2023-05-11T08:57:08.942Z,43.10
2023-05-11T08:58:08.973Z,43.25
2023-05-11T08:59:08.922Z,43.12
2023-05-11T09:00:08.942Z,43.22
2023-05-11T09:01:09.087Z,43.19
2023-05-11T09:02:08.909Z,43.12
2023-05-11T09:03:08.948Z,43.13
2023-05-11T09:04:08.924Z,43.06
2023-05-11T09:05:08.929Z,43.04
2023-05-11T09:06:08.919Z,43.06
2023-05-11T09:07:09.018Z,42.97
2023-05-11T09:08:08.968Z,42.92
2023-05-11T09:09:09.013Z,42.88
2023-05-11T09:10:09.732Z,42.86
2023-05-11T09:11:09.029Z,42.81
2023-05-11T09:12:09.118Z,42.71
2023-05-11T09:13:09.139Z,42.79
2023-05-11T09:14:09.227Z,42.72
2023-05-11T09:15:09.225Z,42.74
2023-05-11T09:16:23.335Z,42.74
2023-05-11T09:17:10.293Z,42.77
2023-05-11T09:18:09.249Z,42.76
2023-05-11T09:19:09.292Z,42.70
2023-05-11T09:20:09.213Z,42.64
2023-05-11T09:21:09.186Z,42.53
2023-05-11T09:22:09.217Z,42.50
2023-05-11T09:23:09.167Z,42.52
2023-05-11T09:24:09.172Z,42.51
2023-05-11T09:25:09.153Z,42.39
2023-05-11T09:26:09.157Z,42.60
2023-05-11T09:27:09.245Z,42.57
2023-05-11T09:29:10.309Z,42.49
2023-05-11T09:30:09.227Z,42.42
2023-05-11T09:31:09.278Z,41.99
2023-05-11T09:32:09.193Z,41.96
2023-05-11T09:33:09.174Z,41.28
2023-05-11T09:34:09.182Z,41.18
2023-05-11T09:35:09.158Z,41.18
2023-05-11T09:36:09.155Z,41.16
2023-05-11T09:37:09.181Z,41.13
2023-05-11T09:38:09.292Z,41.31
2023-05-11T09:39:15.545Z,41.37
2023-05-11T09:40:26.410Z,41.46
2023-05-11T09:41:10.275Z,41.35
2023-05-11T09:42:09.268Z,41.37
2023-05-11T09:43:09.255Z,41.35
2023-05-11T09:44:09.252Z,41.32
2023-05-11T09:45:09.252Z,41.34
2023-05-11T09:46:09.748Z,41.45
2023-05-11T09:47:09.261Z,41.40
2023-05-11T09:48:09.254Z,41.49
2023-05-11T09:49:09.210Z,41.61
2023-05-11T09:50:09.210Z,41.83
2023-05-11T09:51:09.247Z,41.93
2023-05-11T09:52:09.229Z,42.20
2023-05-11T09:53:09.297Z,42.31
2023-05-11T09:54:09.182Z,42.39
2023-05-11T09:55:09.178Z,42.52
2023-05-11T09:56:09.176Z,42.59
2023-05-11T09:57:09.163Z,42.73
2023-05-11T09:58:09.155Z,42.78
2023-05-11T09:59:09.154Z,42.86
2023-05-11T10:00:09.151Z,42.95
2023-05-11T10:01:09.149Z,43.02
2023-05-11T10:02:09.140Z,43.08
2023-05-11T10:03:09.164Z,43.09
2023-05-11T10:04:21.367Z,43.18
2023-05-11T10:05:10.096Z,43.30
2023-05-11T10:06:09.150Z,43.37
2023-05-11T10:07:09.083Z,43.42
2023-05-11T10:08:09.094Z,43.55
2023-05-11T10:09:09.069Z,43.60
2023-05-11T10:10:09.071Z,43.66
2023-05-11T10:11:09.055Z,43.76
2023-05-11T10:12:09.043Z,43.74
2023-05-11T10:13:09.073Z,43.84
2023-05-11T10:14:09.041Z,43.93
2023-05-11T10:15:09.053Z,44.09
2023-05-11T10:16:09.032Z,44.09
2023-05-11T10:17:09.025Z,44.16
2023-05-11T10:18:09.114Z,44.20
2023-05-11T10:19:09.073Z,44.26
2023-05-11T10:20:09.059Z,44.32
2023-05-11T10:21:09.088Z,44.41
2023-05-11T10:22:09.220Z,44.55
2023-05-11T10:23:09.120Z,44.61
2023-05-11T10:24:09.143Z,44.64
2023-05-11T10:25:09.217Z,44.68
2023-05-11T10:26:09.185Z,44.67
2023-05-11T10:27:09.211Z,44.79
2023-05-11T10:28:09.256Z,44.16
2023-05-11T10:29:09.284Z,43.79
2023-05-11T10:30:09.295Z,44.29
2023-05-11T10:31:09.313Z,44.46
2023-05-11T10:32:09.306Z,44.40
2023-05-11T10:33:09.399Z,44.46
2023-05-11T10:34:09.318Z,44.57
2023-05-11T10:35:09.292Z,44.53
2023-05-11T10:36:09.301Z,44.48
2023-05-11T10:37:09.349Z,44.67
2023-05-11T10:38:09.429Z,44.59
2023-05-11T10:39:09.360Z,44.71
2023-05-11T10:40:09.354Z,44.76
2023-05-11T10:41:09.354Z,45.00
2023-05-11T10:42:09.910Z,45.01
2023-05-11T10:43:09.421Z,44.89
2023-05-11T10:44:09.393Z,45.07
2023-05-11T10:45:09.405Z,45.07
2023-05-11T10:46:09.491Z,44.98
2023-05-11T10:47:09.461Z,45.06
2023-05-11T10:48:09.505Z,45.25
2023-05-11T10:49:09.430Z,45.20
2023-05-11T10:50:09.456Z,45.40
2023-05-11T10:51:09.438Z,45.42
2023-05-11T10:52:09.501Z,45.52
2023-05-11T10:53:09.456Z,45.61
2023-05-11T10:54:09.446Z,45.55
2023-05-11T10:55:09.456Z,45.71
2023-05-11T10:56:09.456Z,45.70
2023-05-11T10:57:09.469Z,45.70
2023-05-11T10:58:09.489Z,45.72
2023-05-11T10:59:09.486Z,45.80
2023-05-11T11:00:09.502Z,45.87
2023-05-11T11:01:09.550Z,45.92
2023-05-11T11:02:09.526Z,46.01
2023-05-11T11:03:09.478Z,46.03
2023-05-11T11:04:09.517Z,46.10
2023-05-11T11:05:09.550Z,46.11
2023-05-11T11:06:09.527Z,46.17
2023-05-11T11:07:09.496Z,46.15
2023-05-11T11:08:09.558Z,46.15
2023-05-11T11:09:09.459Z,46.19
2023-05-11T11:10:09.458Z,46.17
2023-05-11T11:11:09.496Z,46.61
2023-05-11T11:12:09.509Z,46.57
2023-05-11T11:13:09.496Z,46.74
2023-05-11T11:14:09.589Z,46.43
2023-05-11T11:15:09.481Z,46.38
2023-05-11T11:16:09.493Z,46.48
2023-05-11T11:17:09.600Z,46.34
2023-05-11T11:18:09.528Z,46.21
2023-05-11T11:19:09.532Z,46.44
2023-05-11T11:20:09.473Z,46.51
2023-05-11T11:21:09.462Z,46.42
2023-05-11T11:22:09.528Z,46.27
2023-05-11T11:23:09.485Z,46.36
2023-05-11T11:24:09.478Z,46.24
2023-05-11T11:25:09.548Z,46.33
2023-05-11T11:26:09.463Z,46.24
2023-05-11T11:27:09.555Z,46.12
2023-05-11T11:28:09.512Z,46.07
2023-05-11T11:29:09.488Z,46.03
2023-05-11T11:30:09.458Z,46.05
2023-05-11T11:31:09.485Z,46.06
2023-05-11T11:32:09.929Z,46.08
2023-05-11T11:33:09.512Z,46.11
2023-05-11T11:34:09.482Z,45.98
2023-05-11T11:35:09.479Z,45.90
2023-05-11T11:36:09.483Z,45.84
2023-05-11T11:37:09.519Z,45.91
2023-05-11T11:38:09.535Z,45.81
2023-05-11T11:39:09.526Z,45.79
2023-05-11T11:40:15.394Z,45.79
2023-05-11T11:41:10.517Z,45.81
2023-05-11T11:42:09.545Z,45.75
2023-05-11T11:43:09.514Z,45.60
2023-05-11T11:44:09.491Z,45.60
2023-05-11T11:45:09.497Z,45.60
2023-05-11T11:46:09.514Z,45.54
2023-05-11T11:47:09.512Z,45.42
2023-05-11T11:48:09.516Z,45.43
2023-05-11T11:49:09.474Z,45.36
2023-05-11T11:50:09.442Z,45.33
2023-05-11T11:51:09.435Z,45.34
2023-05-11T11:52:09.431Z,45.24
2023-05-11T11:53:09.492Z,45.26
2023-05-11T11:54:09.414Z,45.26
2023-05-11T11:55:09.410Z,45.17
2023-05-11T11:56:09.401Z,45.10
2023-05-11T11:57:09.413Z,45.06
2023-05-11T11:58:09.390Z,45.00
2023-05-11T11:59:09.388Z,44.92
2023-05-11T12:00:09.376Z,44.94
2023-05-11T12:01:09.377Z,44.92
2023-05-11T12:02:09.352Z,44.95
2023-05-11T12:03:09.425Z,44.91
2023-05-11T12:04:09.469Z,44.75
2023-05-11T12:05:09.553Z,44.83
2023-05-11T12:06:09.342Z,44.74
2023-05-11T12:07:09.323Z,44.68
2023-05-11T12:08:09.322Z,44.64
2023-05-11T12:09:09.323Z,44.59
2023-05-11T12:10:09.348Z,44.58
2023-05-11T12:11:09.292Z,44.56
2023-05-11T12:12:09.291Z,44.55
2023-05-11T12:13:09.333Z,44.51
2023-05-11T12:14:09.357Z,44.50
2023-05-11T12:15:09.332Z,44.41
2023-05-11T12:16:09.401Z,44.37
2023-05-11T12:17:09.366Z,44.39
2023-05-11T12:18:09.411Z,44.46
2023-05-11T12:19:09.439Z,44.21
2023-05-11T12:20:09.486Z,44.25
2023-05-11T12:21:09.441Z,44.04
2023-05-11T12:22:09.439Z,43.92
2023-05-11T12:23:09.451Z,43.66
2023-05-11T12:24:09.469Z,43.80
2023-05-11T12:25:09.475Z,43.79
2023-05-11T12:26:09.504Z,43.79
2023-05-11T12:27:09.533Z,43.90
2023-05-11T12:28:09.514Z,43.95
2023-05-11T12:29:09.573Z,43.81
2023-05-11T12:30:09.548Z,43.89
2023-05-11T12:31:09.555Z,43.63
2023-05-11T12:32:09.732Z,43.67
2023-05-11T12:33:09.657Z,43.54
2023-05-11T12:34:09.768Z,43.58
2023-05-11T12:35:09.628Z,43.62
2023-05-11T12:36:09.637Z,43.64
2023-05-11T12:37:09.673Z,43.61
2023-05-11T12:38:09.674Z,43.70
2023-05-11T12:39:09.703Z,43.75
2023-05-11T12:40:09.712Z,43.80
2023-05-11T12:41:09.726Z,43.76
2023-05-11T12:42:09.746Z,43.61
2023-05-11T12:43:09.784Z,43.52
2023-05-11T12:44:09.830Z,43.58
2023-05-11T12:45:09.791Z,43.56
2023-05-11T12:46:09.837Z,43.19
2023-05-11T12:47:09.841Z,43.15
2023-05-11T12:48:09.903Z,43.12
2023-05-11T12:49:09.883Z,44.17
2023-05-11T12:50:09.893Z,43.50
2023-05-11T12:51:09.915Z,43.13
2023-05-11T12:52:09.938Z,42.86
2023-05-11T12:53:09.956Z,42.76